Pagina principală
METAR-TAF:

METAR-TAF

Aeroporturi :

Grove, Oklahoma, Statele Unite ale Americii

Latitudine: 36-36-19N, longitudine: 094-44-19W, elevație: 254 m

Observații meteo curente

Raportul a fost făcut în urmă cu 20 de minute, la 15:35 UTC
Vânt 10 kt de la Nord-est cu rafale de până la 16 kt
Temperatură 14°C
Umiditate 41%
Presiune 1027 hPa
Vizibilitate: 16.1 km
Cer senin

METAR: KGMJ 201535Z AUTO 05010G16KT 10SM CLR 14/01 A3034 RMK AO2 TSNO

Ora: 10:55 (15:55 UTC)


TAF: lipsă

Observații și prognoze meteo pentru peste 4.000 de aeroporturi (rapoarte METAR și TAF).

Stațiile disponibile sunt reprezentate pe hartă prin puncte galbene și roșii.

Țineți indicatorul mouse-ului pe punctul dorit pentru a vedea denumirea stației.

Apoi, faceți clic pentru a vedea observațiile și prognozele meteorologice.

Pentru a schimba harta: Pentru mărire, faceți clic pe butoanele verzi cu cruce neagră; pentru micșorare, pe butonul verde cu o liniuță; pentru hărți învecinate, pe săgețile verzi.


METAR-TAF: